Time;durP1;ratioP1;P1;durP2;ratioP2;P2;SDS_P1;SDS_P2;PMS_P1;PMS_P2;Temp;Humidity;BMP_temperature;BMP_pressure;BME280_temperature;BME280_humidity;BME280_pressure;Samples;Min_cycle;Max_cycle;Signal;HPM_P1;HPM_P2
2023/08/29 00:01:17;;;;;;;;;;;;;;;23.36;nan;101069.41;5057473;28;19931;-79
2023/08/29 00:03:42;;;;;;;;;;;;;;;23.35;nan;101054.13;5060449;28;20511;-79
2023/08/29 00:06:08;;;;;;;;;;;;;;;23.35;nan;101059.63;5052191;28;19917;-79
2023/08/29 00:08:33;;;;;;;;;;;;;;;23.35;nan;101056.88;5058205;28;20072;-79
2023/08/29 00:10:59;;;;;;;;;;;;;;;23.31;nan;101050.44;5055836;28;19921;-79
2023/08/29 00:13:24;;;;;;;;;;;;;;;23.30;nan;101038.69;5056647;28;19920;-79
2023/08/29 00:15:50;;;;;;;;;;;;;;;23.29;nan;101037.09;5053913;28;20050;-79
2023/08/29 00:18:16;;;;;;;;;;;;;;;23.30;nan;101037.91;5055896;28;19920;-80
2023/08/29 00:20:41;;;;;;;;;;;;;;;23.29;nan;101036.28;5058647;28;19969;-79
2023/08/29 00:23:09;;;;;;;;;;;;;;;23.26;nan;101029.56;5056800;28;20385;-79
2023/08/29 00:25:34;;;;;;;;;;;;;;;23.24;nan;101022.81;5061238;28;20034;-79
2023/08/29 00:27:59;;;;;;;;;;;;;;;23.26;nan;101031.47;5058116;28;19947;-80
2023/08/29 00:30:25;;;;;;;;;;;;;;;23.25;nan;101038.88;5055399;28;19938;-79
2023/08/29 00:32:50;;;;;;;;;;;;;;;23.24;nan;101033.75;5054648;28;19920;-79
2023/08/29 00:35:15;;;;;;;;;;;;;;;23.21;nan;101033.28;5058649;28;20415;-79
2023/08/29 00:37:40;;;;;;;;;;;;;;;23.21;nan;101024.28;5058657;28;19920;-80
2023/08/29 00:40:07;;;;;;;;;;;;;;;23.18;nan;101019.47;5055268;28;19929;-79
2023/08/29 00:42:32;;;;;;;;;;;;;;;23.16;nan;101016.22;5054978;28;19924;-79
2023/08/29 00:44:58;;;;;;;;;;;;;;;23.13;nan;101006.75;5055047;28;19920;-79
2023/08/29 00:47:23;;;;;;;;;;;;;;;23.13;nan;101012.22;5058264;28;20454;-79
2023/08/29 00:49:48;;;;;;;;;;;;;;;23.16;nan;101006.13;5059746;28;19943;-79
2023/08/29 00:52:14;;;;;;;;;;;;;;;23.17;nan;101005.00;5050877;28;19916;-79
2023/08/29 00:54:39;;;;;;;;;;;;;;;23.19;nan;101010.13;5060126;28;19966;-79
2023/08/29 00:57:04;;;;;;;;;;;;;;;23.18;nan;101009.31;5057041;28;19944;-79
2023/08/29 00:59:30;;;;;;;;;;;;;;;23.18;nan;101009.31;5058960;28;19923;-79
2023/08/29 01:01:55;;;;;;;;;;;;;;;23.18;nan;101012.06;5059379;28;19967;-79
2023/08/29 01:04:20;;;;;;;;;;;;;;;23.18;nan;101014.78;5056493;28;20003;-79
2023/08/29 01:06:46;;;;;;;;;;;;;;;23.20;nan;101011.72;5052611;28;20257;-79
2023/08/29 01:09:11;;;;;;;;;;;;;;;23.20;nan;101009.00;5062224;28;20380;-79
2023/08/29 01:12:02;;;;;;;;;;;;;;;23.18;nan;100997.59;5059148;28;19928;-79
2023/08/29 01:14:42;;;;;;;;;;;;;;;23.16;nan;100984.25;5061250;28;19916;-79
2023/08/29 01:17:10;;;;;;;;;;;;;;;23.14;nan;100997.41;5062254;28;19921;-79
2023/08/29 01:19:42;;;;;;;;;;;;;;;23.06;nan;101001.00;5056149;28;20342;-79
2023/08/29 01:22:27;;;;;;;;;;;;;;;23.03;nan;100996.19;5056315;28;20049;-79
2023/08/29 01:25:21;;;;;;;;;;;;;;;23.03;nan;100995.38;5060661;28;19927;-79
2023/08/29 01:27:47;;;;;;;;;;;;;;;23.02;nan;101000.03;5058625;28;20094;-79
2023/08/29 01:30:13;;;;;;;;;;;;;;;23.05;nan;100995.84;5065967;28;20232;-79
2023/08/29 01:32:38;;;;;;;;;;;;;;;23.05;nan;100993.91;5060761;28;20030;-80
2023/08/29 01:35:05;;;;;;;;;;;;;;;23.05;nan;100984.94;5061169;28;19963;-80
2023/08/29 01:37:30;;;;;;;;;;;;;;;23.05;nan;100979.47;5061817;28;19928;-80
2023/08/29 01:39:56;;;;;;;;;;;;;;;23.05;nan;100974.78;5062738;28;19935;-80
2023/08/29 01:42:21;;;;;;;;;;;;;;;23.04;nan;100978.66;5064093;28;20453;-80
2023/08/29 01:44:46;;;;;;;;;;;;;;;23.03;nan;100989.91;5063355;28;19916;-80
2023/08/29 01:47:11;;;;;;;;;;;;;;;23.01;nan;100984.78;5061667;28;20347;-80
2023/08/29 01:49:37;;;;;;;;;;;;;;;23.01;nan;100987.50;5063863;28;20445;-79
2023/08/29 01:52:03;;;;;;;;;;;;;;;23.00;nan;100977.72;5066476;28;20483;-80
2023/08/29 01:54:28;;;;;;;;;;;;;;;22.98;nan;100979.97;5063017;28;19931;-80
2023/08/29 01:56:56;;;;;;;;;;;;;;;22.97;nan;100975.59;5059511;28;20475;-80
2023/08/29 01:59:22;;;;;;;;;;;;;;;22.97;nan;100969.34;5062201;28;20003;-80
2023/08/29 02:01:47;;;;;;;;;;;;;;;22.96;nan;100979.47;5062607;28;20043;-80
2023/08/29 02:04:12;;;;;;;;;;;;;;;22.98;nan;100976.41;5063901;28;19921;-80
2023/08/29 02:06:38;;;;;;;;;;;;;;;23.01;nan;100975.78;5062036;28;19946;-80
2023/08/29 02:09:03;;;;;;;;;;;;;;;23.05;nan;100988.47;5061884;28;19916;-80
2023/08/29 02:11:28;;;;;;;;;;;;;;;23.06;nan;100998.25;5062328;28;19921;-80
2023/08/29 02:13:54;;;;;;;;;;;;;;;23.03;nan;100993.44;5063604;28;19917;-80
2023/08/29 02:16:19;;;;;;;;;;;;;;;23.03;nan;100996.19;5059072;28;19928;-80
2023/08/29 02:18:44;;;;;;;;;;;;;;;23.03;nan;101006.31;5059741;28;20316;-80
2023/08/29 02:21:10;;;;;;;;;;;;;;;23.00;nan;101017.91;5057989;28;20019;-80
2023/08/29 02:23:35;;;;;;;;;;;;;;;22.98;nan;101020.97;5059642;28;19999;-80
2023/08/29 02:26:04;;;;;;;;;;;;;;;22.97;nan;101027.53;5061747;28;20231;-80
2023/08/29 02:28:34;;;;;;;;;;;;;;;22.96;nan;101031.38;5064846;28;19927;-80
2023/08/29 02:31:03;;;;;;;;;;;;;;;22.94;nan;101021.91;5064194;28;19916;-80
2023/08/29 02:33:28;;;;;;;;;;;;;;;22.93;nan;101021.09;5062642;28;19916;-80
2023/08/29 02:35:53;;;;;;;;;;;;;;;22.91;nan;101024.16;5061653;28;20438;-80
2023/08/29 02:38:19;;;;;;;;;;;;;;;22.90;nan;101019.03;5062565;28;19935;-80
2023/08/29 02:40:44;;;;;;;;;;;;;;;22.87;nan;101017.75;5055595;28;20334;-80
2023/08/29 02:43:09;;;;;;;;;;;;;;;22.87;nan;101020.47;5061797;28;19962;-80
2023/08/29 02:45:34;;;;;;;;;;;;;;;22.88;nan;101019.34;5062153;28;19913;-80
2023/08/29 02:48:00;;;;;;;;;;;;;;;22.91;nan;101020.63;5059681;28;20375;-80
2023/08/29 02:50:25;;;;;;;;;;;;;;;22.93;nan;101010.19;5058981;28;19963;-79
2023/08/29 02:52:50;;;;;;;;;;;;;;;22.96;nan;101006.00;5061272;28;19921;-80
2023/08/29 02:55:16;;;;;;;;;;;;;;;22.98;nan;101006.47;5057600;28;20431;-80
2023/08/29 02:57:41;;;;;;;;;;;;;;;23.00;nan;101013.22;5060294;28;19916;-80
2023/08/29 03:00:06;;;;;;;;;;;;;;;23.02;nan;101002.78;5061714;28;20003;-80
2023/08/29 03:02:32;;;;;;;;;;;;;;;23.04;nan;101000.53;5064211;28;20400;-80
2023/08/29 03:04:58;;;;;;;;;;;;;;;23.05;nan;100991.19;5062153;28;20392;-80
2023/08/29 03:07:23;;;;;;;;;;;;;;;23.06;nan;100994.72;5062299;28;19966;-80
2023/08/29 03:09:48;;;;;;;;;;;;;;;23.04;nan;100991.53;5060677;28;21285;-80
2023/08/29 03:12:13;;;;;;;;;;;;;;;23.04;nan;100986.06;5060914;28;20352;-79
2023/08/29 03:14:39;;;;;;;;;;;;;;;23.02;nan;100972.72;5058894;28;19916;-80
2023/08/29 03:17:04;;;;;;;;;;;;;;;23.01;nan;100964.84;5064383;28;20336;-80
2023/08/29 03:19:29;;;;;;;;;;;;;;;23.01;nan;100959.38;5061841;28;19912;-80
2023/08/29 03:21:56;;;;;;;;;;;;;;;23.01;nan;100945.72;5065797;28;19926;-80
2023/08/29 03:24:21;;;;;;;;;;;;;;;23.00;nan;100947.66;5059505;28;19927;-80
2023/08/29 03:26:46;;;;;;;;;;;;;;;23.02;nan;100944.59;5061990;28;20327;-80
2023/08/29 03:29:11;;;;;;;;;;;;;;;22.97;nan;100937.34;5064633;28;20312;-80
2023/08/29 03:31:38;;;;;;;;;;;;;;;22.92;nan;100938.34;5061263;28;20501;-79
2023/08/29 03:34:03;;;;;;;;;;;;;;;22.89;nan;100932.72;5062673;28;19971;-79
2023/08/29 03:36:29;;;;;;;;;;;;;;;22.87;nan;100924.06;5059479;28;20450;-79
2023/08/29 03:38:54;;;;;;;;;;;;;;;22.88;nan;100917.47;5060942;28;19982;-79
2023/08/29 03:41:19;;;;;;;;;;;;;;;22.90;nan;100904.28;5062204;28;20385;-80
2023/08/29 03:43:44;;;;;;;;;;;;;;;22.91;nan;100909.41;5065688;28;20288;-80
2023/08/29 03:46:10;;;;;;;;;;;;;;;22.94;nan;100910.69;5062435;28;19917;-80
2023/08/29 03:48:35;;;;;;;;;;;;;;;22.94;nan;100907.94;5062037;28;19978;-80
2023/08/29 03:51:06;;;;;;;;;;;;;;;22.95;nan;100901.34;5063872;28;20404;-80
2023/08/29 03:53:34;;;;;;;;;;;;;;;22.95;nan;100895.91;5058048;28;19916;-79
2023/08/29 03:56:02;;;;;;;;;;;;;;;22.96;nan;100891.22;5059204;28;19917;-80
2023/08/29 03:58:27;;;;;;;;;;;;;;;22.95;nan;100884.97;5058019;28;20322;-80
2023/08/29 04:00:53;;;;;;;;;;;;;;;22.94;nan;100885.28;5059882;28;20003;-80
2023/08/29 04:03:19;;;;;;;;;;;;;;;22.93;nan;100879.03;5061587;28;19970;-80
2023/08/29 04:05:45;;;;;;;;;;;;;;;22.94;nan;100880.63;5057534;28;19924;-79
2023/08/29 04:08:11;;;;;;;;;;;;;;;22.95;nan;100889.63;5063125;28;19924;-80
2023/08/29 04:10:37;;;;;;;;;;;;;;;22.89;nan;100886.28;5057095;28;19920;-80
2023/08/29 04:13:03;;;;;;;;;;;;;;;22.81;nan;100887.91;5059178;28;19924;-80
2023/08/29 04:15:28;;;;;;;;;;;;;;;22.73;nan;100888.72;5055936;28;20003;-80
2023/08/29 04:17:53;;;;;;;;;;;;;;;22.68;nan;100891.63;5055669;28;20391;-80
2023/08/29 04:20:19;;;;;;;;;;;;;;;22.68;nan;100890.84;5055948;28;19955;-80
2023/08/29 04:22:45;;;;;;;;;;;;;;;22.72;nan;100891.78;5058826;28;19920;-79
2023/08/29 04:25:10;;;;;;;;;;;;;;;22.73;nan;100893.38;5056255;28;19939;-80
2023/08/29 04:27:36;;;;;;;;;;;;;;;22.74;nan;100900.44;5061225;28;19916;-80
2023/08/29 04:30:01;;;;;;;;;;;;;;;22.72;nan;100892.56;5056806;28;21428;-80
2023/08/29 04:32:26;;;;;;;;;;;;;;;22.74;nan;100895.78;5060677;28;19978;-80
2023/08/29 04:34:52;;;;;;;;;;;;;;;22.72;nan;100897.25;5050042;28;19921;-80
2023/08/29 04:37:17;;;;;;;;;;;;;;;22.75;nan;100902.03;5059314;28;20399;-80
2023/08/29 04:39:43;;;;;;;;;;;;;;;22.76;nan;100898.19;5057419;28;20451;-80
2023/08/29 04:42:09;;;;;;;;;;;;;;;22.78;nan;100890.47;5063692;28;20494;-80
2023/08/29 04:44:34;;;;;;;;;;;;;;;22.77;nan;100877.94;5058271;28;19916;-80
2023/08/29 04:47:00;;;;;;;;;;;;;;;22.79;nan;100873.75;5058606;28;20422;-80
2023/08/29 04:49:25;;;;;;;;;;;;;;;22.82;nan;100875.06;5061761;28;19970;-80
2023/08/29 04:51:51;;;;;;;;;;;;;;;22.87;nan;100872.16;5059883;28;19928;-80
2023/08/29 04:54:16;;;;;;;;;;;;;;;22.92;nan;100869.22;5060760;28;19916;-80
2023/08/29 04:56:41;;;;;;;;;;;;;;;22.94;nan;100877.91;5058440;28;20376;-80
2023/08/29 04:59:06;;;;;;;;;;;;;;;22.97;nan;100876.44;5062095;28;20384;-80
2023/08/29 05:01:32;;;;;;;;;;;;;;;22.99;nan;100879.66;5058083;28;19924;-80
2023/08/29 05:03:57;;;;;;;;;;;;;;;22.99;nan;100874.22;5064946;28;19917;-80
2023/08/29 05:06:24;;;;;;;;;;;;;;;23.00;nan;100879.34;5062007;28;20420;-79
2023/08/29 05:08:50;;;;;;;;;;;;;;;22.98;nan;100884.34;5062187;28;20015;-80
2023/08/29 05:11:15;;;;;;;;;;;;;;;22.97;nan;100888.16;5059115;28;20019;-80
2023/08/29 05:13:40;;;;;;;;;;;;;;;22.97;nan;100888.16;5065146;28;19920;-80
2023/08/29 05:16:05;;;;;;;;;;;;;;;22.98;nan;100884.34;5058748;28;19959;-80
2023/08/29 05:18:31;;;;;;;;;;;;;;;22.98;nan;100878.88;5062820;28;20438;-80
2023/08/29 05:20:56;;;;;;;;;;;;;;;22.97;nan;100879.97;5064081;28;19931;-80
2023/08/29 05:23:21;;;;;;;;;;;;;;;22.94;nan;100877.09;5058323;28;19917;-80
2023/08/29 05:25:47;;;;;;;;;;;;;;;22.94;nan;100880.63;5061508;28;19966;-80
2023/08/29 05:28:12;;;;;;;;;;;;;;;22.96;nan;100881.09;5065532;28;19927;-80
2023/08/29 05:30:38;;;;;;;;;;;;;;;23.00;nan;100887.53;5061219;28;20007;-80
2023/08/29 05:33:03;;;;;;;;;;;;;;;23.05;nan;100892.00;5068006;28;20388;-80
2023/08/29 05:35:28;;;;;;;;;;;;;;;23.09;nan;100906.63;5062445;28;19960;-80
2023/08/29 05:37:53;;;;;;;;;;;;;;;23.11;nan;100907.88;5059403;28;20384;-80
2023/08/29 05:40:19;;;;;;;;;;;;;;;23.14;nan;100909.16;5065557;28;19917;-80
2023/08/29 05:42:44;;;;;;;;;;;;;;;23.18;nan;100910.13;5067517;28;20034;-80
2023/08/29 05:45:10;;;;;;;;;;;;;;;23.19;nan;100912.53;5067963;28;20332;-80
2023/08/29 05:47:35;;;;;;;;;;;;;;;23.20;nan;100911.41;5063758;28;19920;-80
2023/08/29 05:50:00;;;;;;;;;;;;;;;23.21;nan;100898.53;5063165;28;19920;-80
2023/08/29 05:52:25;;;;;;;;;;;;;;;23.21;nan;100896.59;5065020;28;19931;-80
2023/08/29 05:54:51;;;;;;;;;;;;;;;23.19;nan;100890.66;5057883;28;19920;-80
2023/08/29 05:57:16;;;;;;;;;;;;;;;23.22;nan;100878.25;5064932;28;19920;-80
2023/08/29 05:59:41;;;;;;;;;;;;;;;23.24;nan;100873.25;5065132;28;19916;-80
2023/08/29 06:02:07;;;;;;;;;;;;;;;23.29;nan;100883.19;5064829;28;19916;-80
2023/08/29 06:04:32;;;;;;;;;;;;;;;23.31;nan;100886.41;5064834;28;19925;-80
2023/08/29 06:06:58;;;;;;;;;;;;;;;23.37;nan;100883.16;5061472;28;19997;-80
2023/08/29 06:09:23;;;;;;;;;;;;;;;23.44;nan;100866.22;5061110;28;19928;-80
2023/08/29 06:11:48;;;;;;;;;;;;;;;23.48;nan;100861.69;5060581;28;20057;-80
2023/08/29 06:14:14;;;;;;;;;;;;;;;23.49;nan;100861.34;5065299;28;20049;-80
2023/08/29 06:16:39;;;;;;;;;;;;;;;23.46;nan;100864.75;5060810;28;20300;-80
2023/08/29 06:19:05;;;;;;;;;;;;;;;23.43;nan;100859.97;5063902;28;19928;-80
2023/08/29 06:21:30;;;;;;;;;;;;;;;23.45;nan;100862.34;5062162;28;19920;-80
2023/08/29 06:23:55;;;;;;;;;;;;;;;23.52;nan;100859.91;5064169;28;19924;-80
2023/08/29 06:26:21;;;;;;;;;;;;;;;23.60;nan;100870.00;5060418;28;20372;-80
2023/08/29 06:28:47;;;;;;;;;;;;;;;23.67;nan;100856.59;5063925;28;19916;-80
2023/08/29 06:31:12;;;;;;;;;;;;;;;23.74;nan;100859.63;5063080;28;19923;-80
2023/08/29 06:33:38;;;;;;;;;;;;;;;23.76;nan;100862.81;5062097;28;19924;-80
2023/08/29 06:36:03;;;;;;;;;;;;;;;23.78;nan;100866.00;5062100;28;19920;-80
2023/08/29 06:38:29;;;;;;;;;;;;;;;23.83;nan;100875.94;5064770;28;20419;-80
2023/08/29 06:40:55;;;;;;;;;;;;;;;23.87;nan;100878.81;5059789;28;19916;-80
2023/08/29 06:43:21;;;;;;;;;;;;;;;23.92;nan;100882.16;5061984;28;19920;-80
2023/08/29 06:45:46;;;;;;;;;;;;;;;23.96;nan;100879.56;5062428;28;20013;-80
2023/08/29 06:48:12;;;;;;;;;;;;;;;23.99;nan;100885.16;5061303;28;20805;-80
2023/08/29 06:50:37;;;;;;;;;;;;;;;24.01;nan;100893.03;5057623;28;19935;-80
2023/08/29 06:53:03;;;;;;;;;;;;;;;24.02;nan;100894.63;5059044;28;20343;-80
2023/08/29 06:55:29;;;;;;;;;;;;;;;24.04;nan;100892.34;5054849;28;19920;-80
2023/08/29 06:57:54;;;;;;;;;;;;;;;24.09;nan;100897.63;5061595;28;19933;-80
2023/08/29 07:00:22;;;;;;;;;;;;;;;24.11;nan;100898.91;5067220;28;19916;-80
2023/08/29 07:02:48;;;;;;;;;;;;;;;24.11;nan;100909.06;5056938;28;19952;-80
2023/08/29 07:05:13;;;;;;;;;;;;;;;24.13;nan;100919.66;5057674;28;20258;-80
2023/08/29 07:07:40;;;;;;;;;;;;;;;24.15;nan;100925.59;5061394;28;19993;-80
2023/08/29 07:10:05;;;;;;;;;;;;;;;24.15;nan;100926.41;5059347;28;19917;-80
2023/08/29 07:12:31;;;;;;;;;;;;;;;24.15;nan;100926.41;5062298;28;19924;-80
2023/08/29 07:14:56;;;;;;;;;;;;;;;24.17;nan;100929.59;5061946;28;19936;-80
2023/08/29 07:17:22;;;;;;;;;;;;;;;24.21;nan;100930.53;5063277;28;19931;-80
2023/08/29 07:19:47;;;;;;;;;;;;;;;24.24;nan;100931.81;5063698;28;19916;-80
2023/08/29 07:22:12;;;;;;;;;;;;;;;24.25;nan;100945.16;5063671;28;20055;-80
2023/08/29 07:24:39;;;;;;;;;;;;;;;24.26;nan;100946.78;5063760;28;19993;-80
2023/08/29 07:27:05;;;;;;;;;;;;;;;24.26;nan;100945.97;5060971;28;20703;-80
2023/08/29 07:29:30;;;;;;;;;;;;;;;24.22;nan;100951.28;5061418;28;19927;-80
2023/08/29 07:31:56;;;;;;;;;;;;;;;24.21;nan;100948.88;5062585;28;19921;-80
2023/08/29 07:34:21;;;;;;;;;;;;;;;24.19;nan;100951.16;5062051;28;19927;-80
2023/08/29 07:36:46;;;;;;;;;;;;;;;24.20;nan;100953.56;5062142;28;19923;-80
2023/08/29 07:39:12;;;;;;;;;;;;;;;24.23;nan;100957.56;5059781;28;19923;-80
2023/08/29 07:41:37;;;;;;;;;;;;;;;24.22;nan;100959.50;5062566;28;19931;-80
2023/08/29 07:44:03;;;;;;;;;;;;;;;24.29;nan;100964.50;5065881;28;20420;-80
2023/08/29 07:46:28;;;;;;;;;;;;;;;24.34;nan;100973.28;5058709;28;20226;-80
2023/08/29 07:48:53;;;;;;;;;;;;;;;24.37;nan;100978.09;5060133;28;19920;-80
2023/08/29 07:51:18;;;;;;;;;;;;;;;24.37;nan;100971.81;5058925;28;20324;-80
2023/08/29 07:53:44;;;;;;;;;;;;;;;24.35;nan;100974.91;5060915;28;19981;-80
2023/08/29 07:56:09;;;;;;;;;;;;;;;24.32;nan;100975.56;5060382;28;19917;-80
2023/08/29 07:58:34;;;;;;;;;;;;;;;24.33;nan;100977.16;5058401;28;19929;-80
2023/08/29 08:01:01;;;;;;;;;;;;;;;24.37;nan;100980.03;5060223;28;20364;-81
2023/08/29 08:03:27;;;;;;;;;;;;;;;24.33;nan;100981.84;5057024;28;19920;-80
2023/08/29 08:05:52;;;;;;;;;;;;;;;24.27;nan;100973.00;5061698;28;19932;-80
2023/08/29 08:08:17;;;;;;;;;;;;;;;24.31;nan;100978.66;5058110;28;20040;-80
2023/08/29 08:10:43;;;;;;;;;;;;;;;24.36;nan;100971.00;5061332;28;20444;-80
2023/08/29 08:13:08;;;;;;;;;;;;;;;24.39;nan;100975.03;5062710;28;19916;-80
2023/08/29 08:15:33;;;;;;;;;;;;;;;24.38;nan;100973.41;5058770;28;19924;-80
2023/08/29 08:17:59;;;;;;;;;;;;;;;24.38;nan;100970.69;5058244;28;19921;-80
2023/08/29 08:20:24;;;;;;;;;;;;;;;24.39;nan;100972.28;5062556;28;19927;-80
2023/08/29 08:22:49;;;;;;;;;;;;;;;24.38;nan;100963.25;5061570;28;19935;-80
2023/08/29 08:25:15;;;;;;;;;;;;;;;24.43;nan;100969.69;5058554;28;20006;-80
2023/08/29 08:27:40;;;;;;;;;;;;;;;24.48;nan;100964.00;5058397;28;19924;-80
2023/08/29 08:30:06;;;;;;;;;;;;;;;24.52;nan;100967.66;5060540;28;19920;-80
2023/08/29 08:32:31;;;;;;;;;;;;;;;24.56;nan;100963.91;5056967;28;20074;-81
2023/08/29 08:34:56;;;;;;;;;;;;;;;24.58;nan;100972.59;5063398;28;20007;-80
2023/08/29 08:37:22;;;;;;;;;;;;;;;24.56;nan;100974.06;5058986;28;19955;-80
2023/08/29 08:39:47;;;;;;;;;;;;;;;24.60;nan;100970.34;5059205;28;19977;-80
2023/08/29 08:42:14;;;;;;;;;;;;;;;24.65;nan;100967.38;5064870;28;19955;-80
2023/08/29 08:44:40;;;;;;;;;;;;;;;24.69;nan;100962.00;5060292;28;19931;-81
2023/08/29 08:47:06;;;;;;;;;;;;;;;24.73;nan;100957.44;5059818;28;19920;-81
2023/08/29 08:49:31;;;;;;;;;;;;;;;24.79;nan;100949.84;5058812;28;19923;-80
2023/08/29 08:51:58;;;;;;;;;;;;;;;24.84;nan;100963.31;5059148;28;20281;-81
2023/08/29 08:54:23;;;;;;;;;;;;;;;24.90;nan;100961.94;5064610;28;19959;-81
2023/08/29 08:56:49;;;;;;;;;;;;;;;24.92;nan;100965.94;5059203;28;20379;-80
2023/08/29 08:59:15;;;;;;;;;;;;;;;24.92;nan;100962.41;5060529;28;19916;-81
2023/08/29 09:01:40;;;;;;;;;;;;;;;24.93;nan;100962.06;5061834;28;20292;-80
2023/08/29 09:04:05;;;;;;;;;;;;;;;24.97;nan;100959.47;5056810;28;19921;-80
2023/08/29 09:06:31;;;;;;;;;;;;;;;24.98;nan;100956.38;5058652;28;19939;-80
2023/08/29 09:08:57;;;;;;;;;;;;;;;24.97;nan;100948.50;5059551;28;20825;-81
2023/08/29 09:11:22;;;;;;;;;;;;;;;24.92;nan;100949.50;5059857;28;19916;-81
2023/08/29 09:13:48;;;;;;;;;;;;;;;24.91;nan;100947.91;5059985;28;19923;-81
2023/08/29 09:16:14;;;;;;;;;;;;;;;24.93;nan;100937.41;5053064;28;19971;-81
2023/08/29 09:18:42;;;;;;;;;;;;;;;24.94;nan;100943.69;5059460;28;19920;-80
2023/08/29 09:21:15;;;;;;;;;;;;;;;24.92;nan;100949.50;5057432;28;19920;-80
2023/08/29 09:23:40;;;;;;;;;;;;;;;24.96;nan;100941.44;5055599;28;20451;-80
2023/08/29 09:26:05;;;;;;;;;;;;;;;24.98;nan;100936.41;5057912;28;20151;-80
2023/08/29 09:28:31;;;;;;;;;;;;;;;25.03;nan;100938.13;5052261;28;19931;-80
2023/08/29 09:31:06;;;;;;;;;;;;;;;25.05;nan;100931.19;5057087;28;19989;-80
2023/08/29 09:33:32;;;;;;;;;;;;;;;25.08;nan;100938.72;5057824;28;19971;-80
2023/08/29 09:36:00;;;;;;;;;;;;;;;25.13;nan;100940.41;5059633;28;19924;-80
2023/08/29 09:38:28;;;;;;;;;;;;;;;25.18;nan;100934.72;5059072;28;19928;-80
2023/08/29 09:40:55;;;;;;;;;;;;;;;25.20;nan;100932.44;5058129;28;20028;-80
2023/08/29 09:43:20;;;;;;;;;;;;;;;25.25;nan;100935.75;5057033;28;19931;-80
2023/08/29 09:45:50;;;;;;;;;;;;;;;25.29;nan;100944.09;5058121;28;19921;-80
2023/08/29 09:48:15;;;;;;;;;;;;;;;25.24;nan;100936.09;5062630;28;19997;-81
2023/08/29 09:50:41;;;;;;;;;;;;;;;25.19;nan;100933.59;5066363;28;20513;-80
2023/08/29 09:53:07;;;;;;;;;;;;;;;25.19;nan;100925.38;5064360;28;20487;-80
2023/08/29 09:55:36;;;;;;;;;;;;;;;25.20;nan;100930.50;5058151;28;19959;-80
2023/08/29 09:58:05;;;;;;;;;;;;;;;25.24;nan;100922.38;5056451;28;19928;-80
2023/08/29 10:00:30;;;;;;;;;;;;;;;25.28;nan;100924.09;5060129;28;19920;-80
2023/08/29 10:02:56;;;;;;;;;;;;;;;25.31;nan;100922.59;5055118;28;19920;-80
2023/08/29 10:05:24;;;;;;;;;;;;;;;25.33;nan;100922.28;5058574;28;19920;-80
2023/08/29 10:07:51;;;;;;;;;;;;;;;25.33;nan;100909.38;5061610;28;20486;-80
2023/08/29 10:10:16;;;;;;;;;;;;;;;25.36;nan;100907.88;5058837;28;19970;-80
2023/08/29 10:12:43;;;;;;;;;;;;;;;25.40;nan;100900.56;5064840;28;19956;-80
2023/08/29 10:15:09;;;;;;;;;;;;;;;25.44;nan;100896.78;5056843;28;20203;-80
2023/08/29 10:17:35;;;;;;;;;;;;;;;25.46;nan;100891.75;5056179;28;19964;-80
2023/08/29 10:20:04;;;;;;;;;;;;;;;25.46;nan;100890.94;5054746;28;19924;-80
2023/08/29 10:22:30;;;;;;;;;;;;;;;25.49;nan;100888.31;5059369;28;19921;-80
2023/08/29 10:24:56;;;;;;;;;;;;;;;25.52;nan;100884.91;5056176;28;19928;-79
2023/08/29 10:27:21;;;;;;;;;;;;;;;25.57;nan;100881.09;5054054;28;19927;-80
2023/08/29 10:29:47;;;;;;;;;;;;;;;25.63;nan;100881.66;5062121;28;19920;-80
2023/08/29 10:32:13;;;;;;;;;;;;;;;25.59;nan;100874.13;5060872;28;19924;-80
2023/08/29 10:34:40;;;;;;;;;;;;;;;25.61;nan;100880.06;5055986;28;19925;-80
2023/08/29 10:37:05;;;;;;;;;;;;;;;25.63;nan;100868.75;5055447;28;21241;-80
2023/08/29 10:39:30;;;;;;;;;;;;;;;25.64;nan;100866.78;5056543;28;19926;-80
2023/08/29 10:41:56;;;;;;;;;;;;;;;25.58;nan;100861.56;5056104;28;19917;-80
2023/08/29 10:44:31;;;;;;;;;;;;;;;25.57;nan;100864.66;5061193;28;19958;-80
2023/08/29 10:47:23;;;;;;;;;;;;;;;25.58;nan;100864.28;5060924;28;20394;-80
2023/08/29 10:49:55;;;;;;;;;;;;;;;25.59;nan;100868.63;5058567;28;19959;-80
2023/08/29 10:52:21;;;;;;;;;;;;;;;25.66;nan;100861.75;5062720;28;19924;-80
2023/08/29 10:54:46;;;;;;;;;;;;;;;25.67;nan;100858.66;5055419;28;20167;-80
2023/08/29 10:57:32;;;;;;;;;;;;;;;25.72;nan;100860.41;5062330;28;20372;-80
2023/08/29 10:59:58;;;;;;;;;;;;;;;25.83;nan;100862.31;5057761;28;19916;-81
2023/08/29 11:02:25;;;;;;;;;;;;;;;25.95;nan;100871.66;5064637;28;19969;-81
2023/08/29 11:04:51;;;;;;;;;;;;;;;26.04;nan;100864.09;5058708;28;19927;-81
2023/08/29 11:07:26;;;;;;;;;;;;;;;26.09;nan;100864.63;5063689;28;19920;-81
2023/08/29 11:10:10;;;;;;;;;;;;;;;26.14;nan;100869.06;5059632;28;19916;-81
2023/08/29 11:12:35;;;;;;;;;;;;;;;26.22;nan;100870.06;5061622;28;19920;-80
2023/08/29 11:15:00;;;;;;;;;;;;;;;26.29;nan;100864.75;5064092;28;19920;-81
2023/08/29 11:17:26;;;;;;;;;;;;;;;26.35;nan;100868.88;5064547;28;20293;-81
2023/08/29 11:19:52;;;;;;;;;;;;;;;26.40;nan;100874.13;5059945;28;19985;-81
2023/08/29 11:22:19;;;;;;;;;;;;;;;26.46;nan;100867.22;5062648;28;19929;-81
2023/08/29 11:24:45;;;;;;;;;;;;;;;26.51;nan;100875.19;5060131;28;19947;-81
2023/08/29 11:27:15;;;;;;;;;;;;;;;26.55;nan;100872.53;5059249;28;19948;-81
2023/08/29 11:29:40;;;;;;;;;;;;;;;26.54;nan;100868.97;5060441;28;19928;-81
2023/08/29 11:32:06;;;;;;;;;;;;;;;26.56;nan;100876.88;5063607;28;19997;-81
2023/08/29 11:34:34;;;;;;;;;;;;;;;26.56;nan;100876.88;5058954;28;19920;-81
2023/08/29 11:37:00;;;;;;;;;;;;;;;26.53;nan;100875.63;5058189;28;20335;-81
2023/08/29 11:39:25;;;;;;;;;;;;;;;26.61;nan;100876.63;5063204;28;19987;-81
2023/08/29 11:41:50;;;;;;;;;;;;;;;26.64;nan;100870.44;5060345;28;19916;-80
2023/08/29 11:44:16;;;;;;;;;;;;;;;26.69;nan;100868.19;5059015;28;20345;-81
2023/08/29 11:46:43;;;;;;;;;;;;;;;26.71;nan;100865.91;5059238;28;19917;-80
2023/08/29 11:49:14;;;;;;;;;;;;;;;26.72;nan;100859.25;5060526;28;19978;-81
2023/08/29 11:51:40;;;;;;;;;;;;;;;26.72;nan;100862.00;5063258;28;19973;-81
2023/08/29 11:54:25;;;;;;;;;;;;;;;26.70;nan;100858.00;5060377;28;19924;-82
2023/08/29 11:56:51;;;;;;;;;;;;;;;26.69;nan;100851.72;5055507;28;19920;-82
2023/08/29 11:59:16;;;;;;;;;;;;;;;26.66;nan;100849.69;5060675;28;19921;-82
2023/08/29 12:01:42;;;;;;;;;;;;;;;26.65;nan;100850.03;5059122;28;19916;-82
2023/08/29 12:04:07;;;;;;;;;;;;;;;26.57;nan;100845.50;5056742;28;19925;-82
2023/08/29 12:06:33;;;;;;;;;;;;;;;26.53;nan;100850.91;5059852;28;19931;-82
2023/08/29 12:08:59;;;;;;;;;;;;;;;26.41;nan;100849.03;5061813;28;19917;-82
2023/08/29 12:11:39;;;;;;;;;;;;;;;26.36;nan;100845.75;5059377;28;19921;-82
2023/08/29 12:14:07;;;;;;;;;;;;;;;26.29;nan;100857.31;5052376;28;19970;-82
2023/08/29 12:16:33;;;;;;;;;;;;;;;26.22;nan;100853.59;5058399;28;19920;-82
2023/08/29 12:19:12;;;;;;;;;;;;;;;26.17;nan;100849.13;5059547;28;20419;-82
2023/08/29 12:21:37;;;;;;;;;;;;;;;26.11;nan;100862.31;5059977;28;20447;-82
2023/08/29 12:24:12;;;;;;;;;;;;;;;26.05;nan;100857.44;5060553;28;19939;-82
2023/08/29 12:26:37;;;;;;;;;;;;;;;26.02;nan;100863.59;5059155;28;19958;-82
2023/08/29 12:29:03;;;;;;;;;;;;;;;25.95;nan;100855.19;5058633;28;20477;-82
2023/08/29 12:31:28;;;;;;;;;;;;;;;25.94;nan;100861.81;5055249;28;20017;-82
2023/08/29 12:33:53;;;;;;;;;;;;;;;25.98;nan;100868.22;5056987;28;19939;-81
2023/08/29 12:36:19;;;;;;;;;;;;;;;26.02;nan;100858.91;5059680;28;19924;-82
2023/08/29 12:38:44;;;;;;;;;;;;;;;26.02;nan;100856.16;5054782;28;20293;-81
2023/08/29 12:41:12;;;;;;;;;;;;;;;26.05;nan;100862.94;5061941;28;20015;-82
2023/08/29 12:43:40;;;;;;;;;;;;;;;26.10;nan;100862.69;5060347;28;19932;-81
2023/08/29 12:46:05;;;;;;;;;;;;;;;26.11;nan;100864.28;5059496;28;19920;-82
2023/08/29 12:48:30;;;;;;;;;;;;;;;26.10;nan;100854.44;5057609;28;19927;-82
2023/08/29 12:50:55;;;;;;;;;;;;;;;26.09;nan;100853.63;5058964;28;19972;-82
2023/08/29 12:53:21;;;;;;;;;;;;;;;26.09;nan;100855.59;5052246;28;19920;-81